createdAt,value
2023-02-19T00:00:51.406Z,96872
2023-02-19T00:01:51.442Z,96873
2023-02-19T00:02:51.402Z,96873
2023-02-19T00:05:51.420Z,96871
2023-02-19T00:06:51.513Z,96871
2023-02-19T00:09:51.466Z,96875
2023-02-19T00:10:51.440Z,96874
2023-02-19T00:11:51.442Z,96877
2023-02-19T00:14:51.476Z,96880
2023-02-19T00:15:51.499Z,96881
2023-02-19T00:16:51.459Z,96885
2023-02-19T00:17:51.449Z,96885
2023-02-19T00:18:51.441Z,96885
2023-02-19T00:19:51.541Z,96880
2023-02-19T00:20:51.491Z,96879
2023-02-19T00:21:51.509Z,96878
2023-02-19T00:22:51.475Z,96879
2023-02-19T00:23:51.490Z,96878
2023-02-19T00:24:51.531Z,96881
2023-02-19T00:25:51.462Z,96881
2023-02-19T00:27:51.478Z,96877
2023-02-19T00:28:51.522Z,96881
2023-02-19T00:30:51.496Z,96879
2023-02-19T00:31:51.688Z,96876
2023-02-19T00:34:51.526Z,96875
2023-02-19T00:35:51.525Z,96875
2023-02-19T00:36:51.524Z,96870
2023-02-19T00:38:51.507Z,96869
2023-02-19T00:40:51.495Z,96865
2023-02-19T00:41:51.509Z,96865
2023-02-19T00:42:51.518Z,96867
2023-02-19T00:43:51.528Z,96860
2023-02-19T00:44:51.582Z,96862
2023-02-19T00:45:51.518Z,96860
2023-02-19T00:46:51.572Z,96863
2023-02-19T00:48:51.562Z,96861
2023-02-19T00:52:51.594Z,96862
2023-02-19T00:53:51.580Z,96862
2023-02-19T00:54:51.583Z,96867
2023-02-19T00:55:51.575Z,96863
2023-02-19T00:56:51.629Z,96865
2023-02-19T00:57:51.634Z,96864
2023-02-19T00:59:51.601Z,96864
2023-02-19T01:00:51.556Z,96866
2023-02-19T01:01:51.648Z,96867
2023-02-19T01:03:51.614Z,96863
2023-02-19T01:04:51.647Z,96863
2023-02-19T01:05:51.595Z,96863
2023-02-19T01:06:51.614Z,96864
2023-02-19T01:07:51.638Z,96866
2023-02-19T01:08:51.633Z,96864
2023-02-19T01:09:51.601Z,96864
2023-02-19T01:10:51.633Z,96864
2023-02-19T01:11:51.620Z,96865
2023-02-19T01:12:51.655Z,96861
2023-02-19T01:13:51.642Z,96860
2023-02-19T01:14:51.665Z,96861
2023-02-19T01:15:51.616Z,96860
2023-02-19T01:17:51.690Z,96854
2023-02-19T01:18:51.612Z,96856
2023-02-19T01:19:51.623Z,96851
2023-02-19T01:20:51.636Z,96850
2023-02-19T01:21:51.647Z,96853
2023-02-19T01:22:51.681Z,96851
2023-02-19T01:23:51.623Z,96853
2023-02-19T01:24:51.625Z,96853
2023-02-19T01:25:51.632Z,96853
2023-02-19T01:26:51.646Z,96853
2023-02-19T01:27:51.655Z,96848
2023-02-19T01:28:51.658Z,96848
2023-02-19T01:29:51.677Z,96851
2023-02-19T01:30:51.652Z,96852
2023-02-19T01:31:51.680Z,96852
2023-02-19T01:32:51.707Z,96851
2023-02-19T01:33:51.666Z,96855
2023-02-19T01:34:51.661Z,96855
2023-02-19T01:35:51.642Z,96856
2023-02-19T01:36:51.677Z,96856
2023-02-19T01:37:51.718Z,96852
2023-02-19T01:38:51.692Z,96852
2023-02-19T01:39:51.652Z,96850
2023-02-19T01:40:51.657Z,96852
2023-02-19T01:41:51.657Z,96850
2023-02-19T01:42:51.690Z,96850
2023-02-19T01:43:51.678Z,96852
2023-02-19T01:44:51.668Z,96853
2023-02-19T01:45:51.656Z,96850
2023-02-19T01:46:51.734Z,96856
2023-02-19T01:47:51.736Z,96854
2023-02-19T01:48:51.670Z,96856
2023-02-19T01:49:51.719Z,96853
2023-02-19T01:50:51.730Z,96854
2023-02-19T01:51:51.699Z,96854
2023-02-19T01:52:51.734Z,96853
2023-02-19T01:53:51.689Z,96854
2023-02-19T01:54:51.720Z,96854
2023-02-19T01:55:51.701Z,96853
2023-02-19T01:56:51.739Z,96853
2023-02-19T01:57:51.744Z,96853
2023-02-19T01:58:51.729Z,96851
2023-02-19T02:00:51.903Z,96852
2023-02-19T02:02:51.706Z,96852
2023-02-19T02:03:51.708Z,96850
2023-02-19T02:05:51.815Z,96846
2023-02-19T02:07:51.787Z,96840
2023-02-19T02:11:51.771Z,96815
2023-02-19T02:12:51.767Z,96809
2023-02-19T02:13:51.780Z,96809
2023-02-19T02:14:51.771Z,96810
2023-02-19T02:15:51.897Z,96797
2023-02-19T02:16:51.811Z,96795
2023-02-19T02:17:51.787Z,96795
2023-02-19T02:18:51.752Z,96791
2023-02-19T02:19:51.755Z,96791
2023-02-19T02:20:51.825Z,96789
2023-02-19T02:22:51.802Z,96791
2023-02-19T02:24:51.813Z,96795
2023-02-19T02:25:51.798Z,96795
2023-02-19T02:26:51.799Z,96795
2023-02-19T02:27:51.819Z,96794
2023-02-19T02:30:51.881Z,96789
2023-02-19T02:31:51.890Z,96785
2023-02-19T02:32:51.789Z,96788
2023-02-19T02:33:51.833Z,96780
2023-02-19T02:34:51.828Z,96780
2023-02-19T02:35:51.835Z,96784
2023-02-19T02:36:51.838Z,96783
2023-02-19T02:37:51.796Z,96782
2023-02-19T02:38:51.849Z,96782
2023-02-19T02:39:51.839Z,96783
2023-02-19T02:41:51.863Z,96777
2023-02-19T02:42:51.812Z,96778
2023-02-19T02:43:51.891Z,96773
2023-02-19T02:44:51.833Z,96774
2023-02-19T02:45:51.869Z,96771
2023-02-19T02:46:51.851Z,96771
2023-02-19T02:47:51.820Z,96768
2023-02-19T02:48:51.812Z,96764
2023-02-19T02:49:51.896Z,96761
2023-02-19T02:50:51.876Z,96763
2023-02-19T02:52:51.828Z,96764
2023-02-19T02:54:51.882Z,96769
2023-02-19T02:55:51.875Z,96775
2023-02-19T02:56:51.879Z,96775
2023-02-19T03:02:51.903Z,96773
2023-02-19T03:03:51.896Z,96776
2023-02-19T03:04:51.936Z,96773
2023-02-19T03:05:51.931Z,96780
2023-02-19T03:06:51.910Z,96781
2023-02-19T03:07:51.924Z,96782
2023-02-19T03:08:51.872Z,96784
2023-02-19T03:09:51.912Z,96780
2023-02-19T03:13:51.901Z,96788
2023-02-19T03:14:51.886Z,96785
2023-02-19T03:15:51.904Z,96780
2023-02-19T03:16:51.931Z,96780
2023-02-19T03:17:51.974Z,96777
2023-02-19T03:18:51.919Z,96780
2023-02-19T03:22:51.916Z,96782
2023-02-19T03:23:51.961Z,96786
2023-02-19T03:24:51.914Z,96786
2023-02-19T03:25:51.925Z,96792
2023-02-19T03:26:51.954Z,96796
2023-02-19T03:28:51.958Z,96798
2023-02-19T03:30:51.948Z,96796
2023-02-19T03:31:52.045Z,96790
2023-02-19T03:32:51.963Z,96791
2023-02-19T03:33:51.928Z,96792
2023-02-19T03:34:51.977Z,96801
2023-02-19T03:35:51.986Z,96795
2023-02-19T03:36:51.954Z,96794
2023-02-19T03:37:51.982Z,96791
2023-02-19T03:39:51.977Z,96790
2023-02-19T03:40:51.943Z,96790
2023-02-19T03:41:51.961Z,96790
2023-02-19T03:42:53.744Z,96790
2023-02-19T03:44:51.999Z,96790
2023-02-19T03:46:51.981Z,96780
2023-02-19T03:47:51.978Z,96773
2023-02-19T03:48:51.988Z,96773
2023-02-19T03:49:51.978Z,96776
2023-02-19T03:50:52.016Z,96792
2023-02-19T03:51:52.000Z,96804
2023-02-19T03:52:52.023Z,96804
2023-02-19T03:53:52.031Z,96811
2023-02-19T03:54:52.015Z,96821
2023-02-19T03:55:52.026Z,96826
2023-02-19T03:56:52.006Z,96832
2023-02-19T03:57:52.010Z,96830
2023-02-19T03:58:52.008Z,96836
2023-02-19T03:59:51.993Z,96836
2023-02-19T04:00:52.044Z,96834
2023-02-19T04:01:52.100Z,96834
2023-02-19T04:02:52.042Z,96834
2023-02-19T04:03:52.048Z,96829
2023-02-19T04:04:52.113Z,96825
2023-02-19T04:07:52.066Z,96814
2023-02-19T04:08:52.242Z,96818
2023-02-19T04:09:52.033Z,96814
2023-02-19T04:10:52.106Z,96806
2023-02-19T04:11:52.072Z,96806
2023-02-19T04:12:52.035Z,96808
2023-02-19T04:13:52.073Z,96807
2023-02-19T04:14:52.167Z,96807
2023-02-19T04:15:52.080Z,96798
2023-02-19T04:16:52.118Z,96792
2023-02-19T04:17:52.058Z,96792
2023-02-19T04:18:52.147Z,96780
2023-02-19T04:19:52.053Z,96784
2023-02-19T04:20:52.084Z,96788
2023-02-19T04:21:52.149Z,96791
2023-02-19T04:23:52.092Z,96793
2023-02-19T04:24:52.066Z,96790
2023-02-19T04:25:52.115Z,96788
2023-02-19T04:26:52.072Z,96788
2023-02-19T04:27:52.108Z,96782
2023-02-19T04:28:52.110Z,96777
2023-02-19T04:30:52.157Z,96774
2023-02-19T04:31:52.172Z,96774
2023-02-19T04:32:52.126Z,96790
2023-02-19T04:33:52.115Z,96796
2023-02-19T04:34:54.164Z,96793
2023-02-19T04:35:52.141Z,96792
2023-02-19T04:36:52.133Z,96792
2023-02-19T04:37:52.075Z,96792
2023-02-19T04:39:52.089Z,96777
2023-02-19T04:40:52.077Z,96766
2023-02-19T04:41:52.172Z,96765
2023-02-19T04:42:52.092Z,96765
2023-02-19T04:43:52.099Z,96773
2023-02-19T04:45:52.137Z,96778
2023-02-19T04:46:52.133Z,96773
2023-02-19T04:47:52.109Z,96775
2023-02-19T04:48:52.148Z,96776
2023-02-19T04:49:52.146Z,96779
2023-02-19T04:50:52.151Z,96777
2023-02-19T04:51:52.154Z,96773
2023-02-19T04:52:52.171Z,96778
2023-02-19T04:53:52.115Z,96782
2023-02-19T04:54:52.131Z,96781
2023-02-19T04:55:52.120Z,96786
2023-02-19T04:57:52.174Z,96794
2023-02-19T04:58:52.175Z,96795
2023-02-19T04:59:52.135Z,96798
2023-02-19T05:00:52.174Z,96799
2023-02-19T05:01:52.223Z,96793
2023-02-19T05:02:52.172Z,96798
2023-02-19T05:03:52.194Z,96798
2023-02-19T05:04:52.190Z,96798
2023-02-19T05:05:52.176Z,96798
2023-02-19T05:06:52.210Z,96803
2023-02-19T05:07:52.199Z,96804
2023-02-19T05:08:52.206Z,96806
2023-02-19T05:09:52.255Z,96814
2023-02-19T05:10:52.187Z,96814
2023-02-19T05:11:52.168Z,96818
2023-02-19T05:12:52.175Z,96818
2023-02-19T05:14:52.242Z,96808
2023-02-19T05:15:52.200Z,96808
2023-02-19T05:16:52.212Z,96805
2023-02-19T05:17:52.184Z,96804
2023-02-19T05:18:52.231Z,96804
2023-02-19T05:19:52.228Z,96800
2023-02-19T05:20:52.239Z,96800
2023-02-19T05:21:52.240Z,96802
2023-02-19T05:22:52.220Z,96803
2023-02-19T05:23:52.233Z,96803
2023-02-19T05:24:52.242Z,96805
2023-02-19T05:25:52.266Z,96808
2023-02-19T05:26:52.199Z,96811
2023-02-19T05:27:52.274Z,96814
2023-02-19T05:29:52.258Z,96818
2023-02-19T05:30:52.305Z,96815
2023-02-19T05:31:52.305Z,96810
2023-02-19T05:34:52.245Z,96804
2023-02-19T05:35:52.221Z,96805
2023-02-19T05:36:52.228Z,96799
2023-02-19T05:37:52.277Z,96802
2023-02-19T05:39:52.301Z,96798
2023-02-19T05:40:52.272Z,96795
2023-02-19T05:41:52.252Z,96795
2023-02-19T05:42:52.251Z,96803
2023-02-19T05:43:52.279Z,96798
2023-02-19T05:44:52.254Z,96801
2023-02-19T05:45:52.301Z,96806
2023-02-19T05:46:52.259Z,96806
2023-02-19T05:47:52.262Z,96802
2023-02-19T05:48:52.256Z,96802
2023-02-19T05:50:52.264Z,96800
2023-02-19T05:51:52.294Z,96797
2023-02-19T05:52:52.320Z,96795
2023-02-19T05:53:52.308Z,96793
2023-02-19T05:54:52.301Z,96793
2023-02-19T05:55:52.315Z,96805
2023-02-19T05:56:52.312Z,96805
2023-02-19T05:57:52.276Z,96806
2023-02-19T05:58:52.326Z,96813
2023-02-19T05:59:52.273Z,96813
2023-02-19T06:00:52.298Z,96819
2023-02-19T06:01:52.294Z,96824
2023-02-19T06:02:52.356Z,96825
2023-02-19T06:03:52.730Z,96825
2023-02-19T06:04:52.340Z,96821
2023-02-19T06:05:52.353Z,96821
2023-02-19T06:06:52.348Z,96827
2023-02-19T06:07:52.318Z,96827
2023-02-19T06:08:52.297Z,96829
2023-02-19T06:10:52.323Z,96838
2023-02-19T06:11:52.363Z,96841
2023-02-19T06:12:52.315Z,96841
2023-02-19T06:13:52.343Z,96841
2023-02-19T06:14:52.312Z,96853
2023-02-19T06:15:52.379Z,96857
2023-02-19T06:16:52.324Z,96862
2023-02-19T06:17:52.328Z,96862
2023-02-19T06:18:52.328Z,96868
2023-02-19T06:19:52.410Z,96869
2023-02-19T06:20:52.375Z,96869
2023-02-19T06:21:52.386Z,96865
2023-02-19T06:23:52.374Z,96867
2023-02-19T06:24:52.431Z,96860
2023-02-19T06:25:52.407Z,96860
2023-02-19T06:26:52.362Z,96859
2023-02-19T06:27:52.355Z,96854
2023-02-19T06:28:52.408Z,96860
2023-02-19T06:29:52.374Z,96860
2023-02-19T06:30:52.379Z,96864
2023-02-19T06:31:52.514Z,96864
2023-02-19T06:32:55.055Z,96866
2023-02-19T06:33:52.372Z,96866
2023-02-19T06:37:52.399Z,96885
2023-02-19T06:38:52.422Z,96885
2023-02-19T06:39:52.439Z,96887
2023-02-19T06:41:52.433Z,96894
2023-02-19T06:42:52.438Z,96890
2023-02-19T06:43:52.443Z,96890
2023-02-19T06:44:52.477Z,96885
2023-02-19T06:45:52.435Z,96885
2023-02-19T06:46:52.442Z,96892
2023-02-19T06:47:52.440Z,96892
2023-02-19T06:50:52.436Z,96891
2023-02-19T06:51:52.475Z,96892
2023-02-19T06:52:52.445Z,96896
2023-02-19T06:53:52.439Z,96896
2023-02-19T06:54:52.496Z,96898
2023-02-19T06:55:52.429Z,96898
2023-02-19T06:56:52.487Z,96897
2023-02-19T06:57:52.452Z,96900
2023-02-19T06:58:52.439Z,96900
2023-02-19T06:59:52.549Z,96909
2023-02-19T07:00:52.506Z,96909
2023-02-19T07:01:52.450Z,96909
2023-02-19T07:02:52.487Z,96913
2023-02-19T07:03:52.572Z,96914
2023-02-19T07:04:52.488Z,96914
2023-02-19T07:05:52.443Z,96926
2023-02-19T07:06:52.494Z,96928
2023-02-19T07:07:52.496Z,96931
2023-02-19T07:09:52.494Z,96928
2023-02-19T07:12:52.479Z,96931
2023-02-19T07:13:52.484Z,96927
2023-02-19T07:14:52.501Z,96927
2023-02-19T07:15:52.588Z,96933
2023-02-19T07:16:52.532Z,96933
2023-02-19T07:17:52.520Z,96935
2023-02-19T07:18:52.480Z,96935
2023-02-19T07:19:52.486Z,96944
2023-02-19T07:20:52.553Z,96941
2023-02-19T07:21:52.542Z,96948
2023-02-19T07:22:52.490Z,96947
2023-02-19T07:23:52.502Z,96947
2023-02-19T07:24:52.545Z,96954
2023-02-19T07:25:52.592Z,96953
2023-02-19T07:26:52.551Z,96951
2023-02-19T07:27:52.566Z,96956
2023-02-19T07:28:52.546Z,96964
2023-02-19T07:30:52.551Z,96963
2023-02-19T07:31:52.638Z,96964
2023-02-19T07:32:52.515Z,96962
2023-02-19T07:33:52.573Z,96965
2023-02-19T07:34:52.580Z,96971
2023-02-19T07:35:52.561Z,96971
2023-02-19T07:36:52.580Z,96976
2023-02-19T07:37:52.554Z,96973
2023-02-19T07:38:52.575Z,96982
2023-02-19T07:39:52.541Z,96984
2023-02-19T07:40:52.548Z,96984
2023-02-19T07:41:52.556Z,96986
2023-02-19T07:42:52.552Z,96989
2023-02-19T07:44:52.554Z,96989
2023-02-19T07:45:52.631Z,96987
2023-02-19T07:46:52.608Z,96988
2023-02-19T07:48:52.600Z,96987
2023-02-19T07:49:52.568Z,96987
2023-02-19T07:50:52.559Z,96987
2023-02-19T07:52:52.595Z,96995
2023-02-19T07:53:52.579Z,96997
2023-02-19T07:54:52.621Z,96997
2023-02-19T07:55:52.624Z,97003
2023-02-19T07:57:52.586Z,97004
2023-02-19T07:58:52.611Z,97007
2023-02-19T07:59:52.664Z,97006
2023-02-19T08:01:52.650Z,97008
2023-02-19T08:02:52.645Z,97012
2023-02-19T08:03:52.643Z,97011
2023-02-19T08:04:52.672Z,97012
2023-02-19T08:05:52.650Z,97012
2023-02-19T08:06:52.646Z,97010
2023-02-19T08:07:52.613Z,97012
2023-02-19T08:08:52.656Z,97015
2023-02-19T08:09:52.654Z,97015
2023-02-19T08:10:52.663Z,97015
2023-02-19T08:11:52.667Z,97019
2023-02-19T08:13:52.633Z,97018
2023-02-19T08:14:52.672Z,97022
2023-02-19T08:15:52.664Z,97018
2023-02-19T08:16:52.682Z,97022
2023-02-19T08:17:52.695Z,97020
2023-02-19T08:18:52.650Z,97019
2023-02-19T08:19:52.648Z,97023
2023-02-19T08:20:52.684Z,97022
2023-02-19T08:21:52.662Z,97027
2023-02-19T08:22:52.708Z,97029
2023-02-19T08:23:52.656Z,97029
2023-02-19T08:24:52.645Z,97020
2023-02-19T08:25:52.665Z,97025
2023-02-19T08:26:52.667Z,97028
2023-02-19T08:28:52.676Z,97025
2023-02-19T08:29:52.706Z,97025
2023-02-19T08:30:52.688Z,97022
2023-02-19T08:32:52.678Z,97024
2023-02-19T08:33:52.682Z,97024
2023-02-19T08:34:52.696Z,97025
2023-02-19T08:35:52.722Z,97025
2023-02-19T08:36:52.727Z,97025
2023-02-19T08:37:52.675Z,97026
2023-02-19T08:38:52.695Z,97028
2023-02-19T08:39:52.735Z,97032
2023-02-19T08:40:52.731Z,97032
2023-02-19T08:41:52.753Z,97043
2023-02-19T08:42:52.683Z,97043
2023-02-19T08:43:52.720Z,97041
2023-02-19T08:44:52.769Z,97043
2023-02-19T08:45:52.765Z,97043
2023-02-19T08:46:52.729Z,97036
2023-02-19T08:47:52.723Z,97033
2023-02-19T08:48:52.719Z,97036
2023-02-19T08:49:52.756Z,97038
2023-02-19T08:50:52.745Z,97034
2023-02-19T08:51:52.726Z,97034
2023-02-19T08:53:52.748Z,97034
2023-02-19T08:54:52.761Z,97032
2023-02-19T08:55:52.808Z,97035
2023-02-19T08:56:52.725Z,97035
2023-02-19T08:57:52.739Z,97038
2023-02-19T08:58:52.750Z,97038
2023-02-19T08:59:52.736Z,97042
2023-02-19T09:00:52.806Z,97047
2023-02-19T09:01:52.772Z,97045
2023-02-19T09:02:52.751Z,97045
2023-02-19T09:03:52.886Z,97046
2023-02-19T09:04:52.749Z,97041
2023-02-19T09:05:52.753Z,97043
2023-02-19T09:06:52.760Z,97043
2023-02-19T09:07:52.769Z,97045
2023-02-19T09:08:52.813Z,97046
2023-02-19T09:09:52.767Z,97046
2023-02-19T09:10:52.926Z,97042
2023-02-19T09:11:52.761Z,97043
2023-02-19T09:12:52.815Z,97044
2023-02-19T09:13:52.800Z,97044
2023-02-19T09:14:52.823Z,97044
2023-02-19T09:15:52.928Z,97046
2023-02-19T09:16:52.826Z,97050
2023-02-19T09:17:52.807Z,97046
2023-02-19T09:18:52.869Z,97051
2023-02-19T09:19:52.818Z,97048
2023-02-19T09:20:52.783Z,97054
2023-02-19T09:21:52.794Z,97052
2023-02-19T09:23:52.802Z,97054
2023-02-19T09:24:52.804Z,97054
2023-02-19T09:25:52.808Z,97052
2023-02-19T09:26:52.894Z,97048
2023-02-19T09:27:52.818Z,97049
2023-02-19T09:28:52.814Z,97051
2023-02-19T09:29:52.996Z,97047
2023-02-19T09:31:52.877Z,97054
2023-02-19T09:32:52.831Z,97056
2023-02-19T09:33:52.827Z,97057
2023-02-19T09:34:52.898Z,97060
2023-02-19T09:35:52.872Z,97062
2023-02-19T09:36:52.832Z,97067
2023-02-19T09:37:52.838Z,97066
2023-02-19T09:38:52.833Z,97066
2023-02-19T09:39:52.880Z,97072
2023-02-19T09:43:52.867Z,97067
2023-02-19T09:44:52.889Z,97061
2023-02-19T09:45:52.924Z,97062
2023-02-19T09:46:52.911Z,97063
2023-02-19T09:47:52.910Z,97063
2023-02-19T09:48:52.867Z,97061
2023-02-19T09:49:52.908Z,97062
2023-02-19T09:50:52.907Z,97063
2023-02-19T09:51:52.880Z,97064
2023-02-19T09:52:52.878Z,97064
2023-02-19T09:53:52.919Z,97064
2023-02-19T09:55:52.914Z,97065
2023-02-19T09:56:52.910Z,97066
2023-02-19T09:57:52.956Z,97062
2023-02-19T09:58:52.929Z,97065
2023-02-19T09:59:52.911Z,97067
2023-02-19T10:00:52.889Z,97068
2023-02-19T10:01:52.938Z,97065
2023-02-19T10:02:52.960Z,97068
2023-02-19T10:03:52.895Z,97070
2023-02-19T10:04:53.021Z,97068
2023-02-19T10:05:52.920Z,97068
2023-02-19T10:07:53.014Z,97070
2023-02-19T10:08:52.910Z,97070
2023-02-19T10:09:52.923Z,97073
2023-02-19T10:10:52.925Z,97071
2023-02-19T10:11:52.925Z,97077
2023-02-19T10:12:52.987Z,97078
2023-02-19T10:13:52.932Z,97078
2023-02-19T10:16:52.945Z,97076
2023-02-19T10:17:53.007Z,97078
2023-02-19T10:18:52.980Z,97075
2023-02-19T10:20:52.959Z,97075
2023-02-19T10:22:52.987Z,97069
2023-02-19T10:23:53.037Z,97072
2023-02-19T10:24:52.989Z,97068
2023-02-19T10:25:52.971Z,97070
2023-02-19T10:26:52.960Z,97072
2023-02-19T10:27:53.031Z,97074
2023-02-19T10:28:52.961Z,97074
2023-02-19T10:30:53.107Z,97073
2023-02-19T10:31:53.026Z,97077
2023-02-19T10:32:53.178Z,97072
2023-02-19T10:33:53.005Z,97067
2023-02-19T10:34:52.984Z,97067
2023-02-19T10:35:52.992Z,97065
2023-02-19T10:36:52.978Z,97065
2023-02-19T10:37:53.020Z,97065
2023-02-19T10:38:52.985Z,97064
2023-02-19T10:39:53.048Z,97062
2023-02-19T10:40:53.067Z,97066
2023-02-19T10:41:53.009Z,97070
2023-02-19T10:42:53.054Z,97070
2023-02-19T10:43:53.035Z,97070
2023-02-19T10:44:53.011Z,97074
2023-02-19T10:45:53.045Z,97070
2023-02-19T10:46:53.061Z,97074
2023-02-19T10:47:53.061Z,97075
2023-02-19T10:48:53.017Z,97071
2023-02-19T10:49:53.045Z,97071
2023-02-19T10:50:53.024Z,97075
2023-02-19T10:51:53.022Z,97076
2023-02-19T10:52:53.030Z,97071
2023-02-19T10:53:53.091Z,97071
2023-02-19T10:54:53.029Z,97073
2023-02-19T10:55:53.042Z,97067
2023-02-19T10:56:53.042Z,97067
2023-02-19T10:57:53.052Z,97071
2023-02-19T10:58:53.104Z,97076
2023-02-19T10:59:53.086Z,97075
2023-02-19T11:00:53.085Z,97079
2023-02-19T11:01:53.131Z,97076
2023-02-19T11:02:53.078Z,97076
2023-02-19T11:03:53.117Z,97080
2023-02-19T11:04:53.096Z,97081
2023-02-19T11:05:53.085Z,97081
2023-02-19T11:06:53.113Z,97071
2023-02-19T11:07:53.125Z,97076
2023-02-19T11:08:53.096Z,97073
2023-02-19T11:09:53.109Z,97076
2023-02-19T11:10:53.103Z,97078
2023-02-19T11:11:53.153Z,97073
2023-02-19T11:12:53.099Z,97073
2023-02-19T11:13:53.127Z,97067
2023-02-19T11:14:53.108Z,97071
2023-02-19T11:15:53.138Z,97070
2023-02-19T11:16:53.150Z,97072
2023-02-19T11:17:53.125Z,97069
2023-02-19T11:18:54.827Z,97071
2023-02-19T11:19:53.085Z,97069
2023-02-19T11:20:53.120Z,97069
2023-02-19T11:21:53.132Z,97066
2023-02-19T11:22:53.123Z,97066
2023-02-19T11:23:53.148Z,97062
2023-02-19T11:24:56.707Z,97058
2023-02-19T11:25:53.108Z,97060
2023-02-19T11:26:53.116Z,97056
2023-02-19T11:27:53.124Z,97058
2023-02-19T11:28:53.108Z,97058
2023-02-19T11:29:53.121Z,97058
2023-02-19T11:30:53.162Z,97057
2023-02-19T11:31:53.229Z,97057
2023-02-19T11:32:53.158Z,97057
2023-02-19T11:33:53.194Z,97043
2023-02-19T11:34:53.232Z,97052
2023-02-19T11:35:53.166Z,97050
2023-02-19T11:37:53.206Z,97056
2023-02-19T11:38:53.175Z,97050
2023-02-19T11:39:53.262Z,97056
2023-02-19T11:40:53.149Z,97056
2023-02-19T11:41:53.152Z,97054
2023-02-19T11:42:53.194Z,97056
2023-02-19T11:43:53.177Z,97056
2023-02-19T11:44:53.229Z,97061
2023-02-19T11:45:53.185Z,97061
2023-02-19T11:46:53.189Z,97063
2023-02-19T11:47:53.180Z,97066
2023-02-19T11:48:53.202Z,97066
2023-02-19T11:49:53.255Z,97066
2023-02-19T11:50:53.208Z,97072
2023-02-19T11:51:53.223Z,97072
2023-02-19T11:52:53.253Z,97067
2023-02-19T11:53:53.217Z,97070
2023-02-19T11:54:53.205Z,97075
2023-02-19T11:55:53.186Z,97072
2023-02-19T11:56:53.190Z,97067
2023-02-19T11:57:53.221Z,97075
2023-02-19T11:59:53.197Z,97069
2023-02-19T12:00:53.243Z,97069
2023-02-19T12:01:53.292Z,97063
2023-02-19T12:02:53.284Z,97068
2023-02-19T12:03:53.201Z,97068
2023-02-19T12:04:53.292Z,97068
2023-02-19T12:05:53.239Z,97066
2023-02-19T12:06:53.208Z,97062
2023-02-19T12:07:53.246Z,97068
2023-02-19T12:08:53.214Z,97065
2023-02-19T12:09:53.251Z,97065
2023-02-19T12:10:53.257Z,97064
2023-02-19T12:11:53.321Z,97065
2023-02-19T12:12:53.299Z,97064
2023-02-19T12:13:53.252Z,97064
2023-02-19T12:15:53.253Z,97055
2023-02-19T12:16:53.233Z,97055
2023-02-19T12:17:53.280Z,97051
2023-02-19T12:18:53.265Z,97051
2023-02-19T12:19:53.284Z,97054
2023-02-19T12:20:53.323Z,97056
2023-02-19T12:21:53.305Z,97051
2023-02-19T12:22:53.289Z,97052
2023-02-19T12:23:53.294Z,97048
2023-02-19T12:24:53.294Z,97048
2023-02-19T12:25:53.341Z,97051
2023-02-19T12:27:53.291Z,97046
2023-02-19T12:28:53.314Z,97046
2023-02-19T12:29:53.294Z,97045
2023-02-19T12:30:53.368Z,97040
2023-02-19T12:31:53.373Z,97038
2023-02-19T12:32:53.329Z,97037
2023-02-19T12:33:53.333Z,97040
2023-02-19T12:34:53.322Z,97037
2023-02-19T12:35:53.326Z,97035
2023-02-19T12:36:53.327Z,97030
2023-02-19T12:37:53.287Z,97030
2023-02-19T12:38:53.345Z,97034
2023-02-19T12:40:53.291Z,97038
2023-02-19T12:41:53.301Z,97029
2023-02-19T12:42:53.305Z,97032
2023-02-19T12:43:53.347Z,97030
2023-02-19T12:44:53.337Z,97032
2023-02-19T12:45:53.368Z,97033
2023-02-19T12:46:53.299Z,97033
2023-02-19T12:47:53.326Z,97032
2023-02-19T12:48:53.466Z,97030
2023-02-19T12:51:53.354Z,97038
2023-02-19T12:52:53.326Z,97035
2023-02-19T12:53:53.381Z,97035
2023-02-19T12:54:55.681Z,97035
2023-02-19T12:55:53.346Z,97034
2023-02-19T12:56:53.364Z,97034
2023-02-19T12:57:53.349Z,97031
2023-02-19T12:58:53.385Z,97031
2023-02-19T12:59:53.376Z,97029
2023-02-19T13:00:53.370Z,97029
2023-02-19T13:01:53.379Z,97030
2023-02-19T13:02:53.388Z,97029
2023-02-19T13:03:53.426Z,97038
2023-02-19T13:05:53.398Z,97045
2023-02-19T13:06:53.361Z,97045
2023-02-19T13:09:05.853Z,97048
2023-02-19T13:09:53.380Z,97050
2023-02-19T13:10:53.407Z,97046
2023-02-19T13:11:53.452Z,97046
2023-02-19T13:13:53.385Z,97056
2023-02-19T13:14:53.430Z,97061
2023-02-19T13:15:53.423Z,97059
2023-02-19T13:16:53.531Z,97054
2023-02-19T13:17:53.394Z,97059
2023-02-19T13:18:53.454Z,97060
2023-02-19T13:19:53.418Z,97058
2023-02-19T13:20:53.405Z,97055
2023-02-19T13:21:53.439Z,97055
2023-02-19T13:22:53.445Z,97057
2023-02-19T13:23:53.415Z,97058
2023-02-19T13:24:53.475Z,97060
2023-02-19T13:25:55.191Z,97062
2023-02-19T13:26:53.461Z,97062
2023-02-19T13:27:53.455Z,97066
2023-02-19T13:28:53.454Z,97061
2023-02-19T13:29:53.568Z,97061
2023-02-19T13:30:53.524Z,97057
2023-02-19T13:32:53.471Z,97055
2023-02-19T13:33:53.451Z,97059
2023-02-19T13:34:53.437Z,97056
2023-02-19T13:35:53.443Z,97060
2023-02-19T13:36:53.482Z,97057
2023-02-19T13:37:53.507Z,97057
2023-02-19T13:38:53.474Z,97057
2023-02-19T13:39:53.507Z,97057
2023-02-19T13:40:53.457Z,97052
2023-02-19T13:41:53.469Z,97054
2023-02-19T13:42:53.535Z,97049
2023-02-19T13:43:53.492Z,97049
2023-02-19T13:44:57.149Z,97046
2023-02-19T13:46:53.470Z,97038
2023-02-19T13:47:53.507Z,97035
2023-02-19T13:48:53.459Z,97031
2023-02-19T13:49:53.507Z,97028
2023-02-19T13:50:53.470Z,97023
2023-02-19T13:51:53.515Z,97025
2023-02-19T13:52:53.541Z,97026
2023-02-19T13:53:53.482Z,97031
2023-02-19T13:54:53.520Z,97038
2023-02-19T13:55:53.500Z,97041
2023-02-19T13:56:53.487Z,97041
2023-02-19T13:57:53.552Z,97043
2023-02-19T13:58:53.526Z,97043
2023-02-19T13:59:53.513Z,97051
2023-02-19T14:00:53.519Z,97051
2023-02-19T14:01:53.573Z,97051
2023-02-19T14:02:53.573Z,97049
2023-02-19T14:03:53.539Z,97047
2023-02-19T14:04:53.561Z,97046
2023-02-19T14:05:53.544Z,97046
2023-02-19T14:06:53.551Z,97044
2023-02-19T14:08:53.560Z,97044
2023-02-19T14:09:53.554Z,97051
2023-02-19T14:10:53.560Z,97047
2023-02-19T14:11:53.560Z,97047
2023-02-19T14:12:53.802Z,97046
2023-02-19T14:13:53.556Z,97047
2023-02-19T14:14:53.585Z,97047
2023-02-19T14:15:53.616Z,97042
2023-02-19T14:16:53.561Z,97042
2023-02-19T14:17:53.572Z,97030
2023-02-19T14:18:53.559Z,97028
2023-02-19T14:19:53.572Z,97028
2023-02-19T14:20:53.574Z,97027
2023-02-19T14:21:53.579Z,97026
2023-02-19T14:22:53.544Z,97026
2023-02-19T14:23:53.601Z,97015
2023-02-19T14:24:53.595Z,97015
2023-02-19T14:25:53.587Z,97019
2023-02-19T14:26:53.560Z,97022
2023-02-19T14:28:53.606Z,97018
2023-02-19T14:29:53.608Z,97019
2023-02-19T14:31:53.668Z,97022
2023-02-19T14:33:02.741Z,97026
2023-02-19T14:33:53.612Z,97027
2023-02-19T14:34:53.573Z,97027
2023-02-19T14:35:53.578Z,97026
2023-02-19T14:36:53.631Z,97025
2023-02-19T14:37:53.590Z,97018
2023-02-19T14:38:53.652Z,97022
2023-02-19T14:39:53.594Z,97019
2023-02-19T14:40:53.629Z,97011
2023-02-19T14:41:53.617Z,97011
2023-02-19T14:42:53.612Z,97020